Time;durP1;ratioP1;P1;durP2;ratioP2;P2;SDS_P1;SDS_P2;PMS_P1;PMS_P2;Temp;Humidity;BMP_temperature;BMP_pressure;BME280_temperature;BME280_humidity;BME280_pressure;Samples;Min_cycle;Max_cycle;Signal;HPM_P1;HPM_P2
2022/10/05 00:00:25;;;;;;;6.78;4.68;;;;;;;14.29;65.09;97714.16;4946382;28;20223;-77
2022/10/05 00:02:53;;;;;;;7.13;5.13;;;;;;;14.16;64.95;97722.47;4942862;28;20169;-77
2022/10/05 00:05:20;;;;;;;6.75;5.10;;;;;;;14.16;65.08;97720.63;4944416;28;20648;-77
2022/10/05 00:07:46;;;;;;;9.38;6.25;;;;;;;14.21;65.37;97717.25;4947291;28;20211;-77
2022/10/05 00:10:17;;;;;;;8.27;6.22;;;;;;;14.05;66.06;97711.94;4921637;28;20083;-77
2022/10/05 00:12:44;;;;;;;7.82;5.20;;;;;;;14.15;65.88;97713.81;4933854;28;20247;-77
2022/10/05 00:15:13;;;;;;;8.43;5.60;;;;;;;14.14;66.30;97708.84;4950562;28;20208;-77
2022/10/05 00:17:40;;;;;;;7.68;6.05;;;;;;;14.18;66.40;97699.44;4947282;28;20173;-76
2022/10/05 00:20:22;;;;;;;8.80;5.68;;;;;;;14.14;66.54;97703.63;4949334;28;20246;-77
2022/10/05 00:22:50;;;;;;;9.00;5.72;;;;;;;14.29;66.54;97701.06;4946923;28;20250;-77
2022/10/05 00:25:18;;;;;;;10.35;6.00;;;;;;;14.27;66.28;97708.38;4948716;28;20676;-77
2022/10/05 00:27:47;;;;;;;9.07;6.00;;;;;;;14.27;66.61;97697.91;4955069;28;20290;-77
2022/10/05 00:30:14;;;;;;;8.68;6.57;;;;;;;14.38;67.11;97696.91;4930511;28;20622;-77
2022/10/05 00:32:40;;;;;;;11.20;7.10;;;;;;;14.40;68.14;97686.97;4917692;28;20302;-77
2022/10/05 00:35:06;;;;;;;9.00;6.50;;;;;;;14.46;67.70;97673.88;4949109;28;20482;-76
2022/10/05 00:37:32;;;;;;;9.57;6.78;;;;;;;14.55;67.74;97667.91;4949417;28;20695;-77
2022/10/05 00:39:57;;;;;;;15.32;7.47;;;;;;;14.54;68.47;97665.53;4932288;28;20312;-77
2022/10/05 00:42:44;;;;;;;11.57;7.35;;;;;;;14.41;69.13;97659.72;4945888;28;20176;-77
2022/10/05 00:45:26;;;;;;;10.07;6.88;;;;;;;14.52;68.61;97654.53;4961610;28;20168;-77
2022/10/05 00:48:31;;;;;;;9.20;6.65;;;;;;;14.64;68.20;97649.09;4933996;28;20261;-77
2022/10/05 00:51:05;;;;;;;9.57;6.32;;;;;;;14.80;67.19;97640.19;4949966;28;20269;-77
2022/10/05 00:53:34;;;;;;;7.63;6.30;;;;;;;14.92;66.58;97642.56;4931309;28;20293;-77
2022/10/05 00:56:08;;;;;;;7.47;5.63;;;;;;;14.61;65.20;97637.28;4948774;28;20164;-77
2022/10/05 00:58:51;;;;;;;8.95;5.35;;;;;;;14.37;65.07;97645.53;4924566;28;20253;-77
2022/10/05 01:01:27;;;;;;;8.35;5.65;;;;;;;14.33;65.92;97644.50;4946978;28;20192;-77
2022/10/05 01:03:56;;;;;;;7.65;5.18;;;;;;;14.23;65.52;97644.47;4936988;28;20176;-77
2022/10/05 01:06:44;;;;;;;7.80;5.40;;;;;;;14.00;65.76;97646.47;4947616;28;20221;-77
2022/10/05 01:09:21;;;;;;;7.18;5.53;;;;;;;14.15;65.38;97658.03;4930537;28;20719;-77
2022/10/05 01:11:52;;;;;;;9.10;5.43;;;;;;;14.00;65.83;97662.16;4933192;28;20676;-77
2022/10/05 01:14:21;;;;;;;6.63;5.05;;;;;;;13.92;65.73;97654.00;4947951;28;20208;-76
2022/10/05 01:16:50;;;;;;;7.10;5.35;;;;;;;14.07;65.77;97659.31;4946824;28;20686;-77
2022/10/05 01:19:41;;;;;;;9.93;5.82;;;;;;;13.86;66.41;97661.03;4915709;28;20208;-76
2022/10/05 01:22:40;;;;;;;8.32;5.68;;;;;;;13.82;66.58;97670.44;4933721;28;20677;-77
2022/10/05 01:25:28;;;;;;;9.00;6.10;;;;;;;14.04;66.55;97676.31;4946221;28;20270;-77
2022/10/05 01:28:32;;;;;;;7.90;5.60;;;;;;;13.85;66.64;97670.72;4956965;28;20102;-77
2022/10/05 01:31:04;;;;;;;9.88;6.03;;;;;;;13.95;66.50;97675.22;4947730;28;20162;-77
2022/10/05 01:33:44;;;;;;;10.38;6.50;;;;;;;13.89;66.77;97676.22;4941494;28;20841;-76
2022/10/05 01:36:14;;;;;;;10.75;6.18;;;;;;;14.00;66.43;97671.84;4946769;28;20203;-77
2022/10/05 01:39:17;;;;;;;9.40;6.60;;;;;;;13.81;66.74;97669.66;4930495;28;20590;-77
2022/10/05 01:41:54;;;;;;;11.20;6.47;;;;;;;13.71;67.53;97674.03;4948718;28;20174;-77
2022/10/05 01:44:39;;;;;;;8.55;6.22;;;;;;;13.72;68.00;97675.59;4927494;28;20283;-76
2022/10/05 01:47:21;;;;;;;10.43;6.40;;;;;;;13.89;68.22;97675.44;4946984;28;20658;-77
2022/10/05 01:49:47;;;;;;;11.13;7.28;;;;;;;14.02;67.41;97675.78;4918291;28;20258;-76
2022/10/05 01:52:31;;;;;;;7.72;6.47;;;;;;;13.94;68.07;97676.25;4916116;28;20137;-77
2022/10/05 01:55:05;;;;;;;9.65;7.40;;;;;;;14.05;67.79;97672.66;4948232;28;20179;-76
2022/10/05 01:57:56;;;;;;;11.03;6.80;;;;;;;14.09;69.33;97675.56;4946245;28;20656;-77
2022/10/05 02:00:21;;;;;;;12.23;9.10;;;;;;;14.46;68.81;97671.25;4945508;28;20646;-77
2022/10/05 02:03:00;;;;;;;13.23;9.02;;;;;;;14.39;69.51;97666.25;4910649;28;20161;-77
2022/10/05 02:05:32;;;;;;;12.02;9.00;;;;;;;14.57;70.04;97671.03;4946217;28;20176;-77
2022/10/05 02:08:02;;;;;;;14.07;9.90;;;;;;;14.76;70.06;97660.88;4930660;28;20156;-77
2022/10/05 02:10:32;;;;;;;17.50;10.77;;;;;;;14.93;69.42;97658.03;4946753;28;20199;-77
2022/10/05 02:13:03;;;;;;;15.38;10.20;;;;;;;15.03;69.21;97661.72;4947051;28;20278;-77
2022/10/05 02:15:36;;;;;;;19.00;11.55;;;;;;;14.95;70.19;97660.41;4945060;28;20653;-77
2022/10/05 02:18:08;;;;;;;17.25;11.45;;;;;;;15.04;69.12;97647.56;4946123;28;20346;-77
2022/10/05 02:20:34;;;;;;;16.92;10.40;;;;;;;15.13;69.78;97651.22;4928310;28;20294;-77
2022/10/05 02:23:07;;;;;;;14.68;10.35;;;;;;;15.16;69.37;97646.28;4951483;28;20326;-78
2022/10/05 02:25:36;;;;;;;15.90;10.20;;;;;;;15.23;69.12;97645.22;4944872;28;20211;-77
2022/10/05 02:28:09;;;;;;;14.27;10.80;;;;;;;15.13;69.01;97630.25;4930389;28;20192;-77
2022/10/05 02:30:40;;;;;;;13.95;9.93;;;;;;;15.31;68.68;97634.97;4944787;28;20719;-77
2022/10/05 02:33:09;;;;;;;16.25;11.07;;;;;;;15.32;68.79;97631.31;4928885;28;20844;-76
2022/10/05 02:35:35;;;;;;;17.65;10.98;;;;;;;15.46;68.55;97628.94;4912133;28;20195;-77
2022/10/05 02:38:06;;;;;;;15.90;10.88;;;;;;;15.43;68.38;97629.47;4915143;28;20211;-77
2022/10/05 02:40:41;;;;;;;14.40;9.95;;;;;;;15.48;67.99;97631.28;4945559;28;20369;-77
2022/10/05 02:43:41;;;;;;;16.25;10.23;;;;;;;15.27;68.82;97623.44;4950020;28;20268;-77
2022/10/05 02:46:16;;;;;;;14.38;10.50;;;;;;;15.35;68.28;97616.88;4942217;28;20193;-77
2022/10/05 02:48:42;;;;;;;;;;;;;;;15.19;68.88;97628.44;4946968;28;20164;-78
2022/10/05 02:51:17;;;;;;;21.20;10.82;;;;;;;15.36;68.38;97618.44;4946712;28;20599;-77
2022/10/05 02:57:24;;;;;;;12.77;8.98;;;;;;;15.34;68.06;97613.47;4928090;28;20370;-77
2022/10/05 03:00:08;;;;;;;11.68;9.00;;;;;;;15.20;68.14;97603.75;4944607;28;20111;-77
2022/10/05 03:02:47;;;;;;;13.55;8.82;;;;;;;15.22;67.51;97591.97;4928904;28;20258;-77
2022/10/05 03:05:25;;;;;;;13.48;9.63;;;;;;;15.35;67.72;97599.31;4927797;28;20228;-77
2022/10/05 03:08:01;;;;;;;11.00;8.90;;;;;;;15.31;67.84;97586.97;4930576;28;20717;-76
2022/10/05 03:10:36;;;;;;;12.55;9.23;;;;;;;15.27;67.78;97586.72;4947083;28;20637;-77
2022/10/05 03:13:25;;;;;;;;;;;;;;;15.10;68.55;97596.69;4947316;28;20203;-76
2022/10/05 03:16:02;;;;;;;12.70;9.23;;;;;;;15.43;67.93;97591.94;4977845;28;20217;-77
2022/10/05 03:18:30;;;;;;;13.45;9.13;;;;;;;15.34;67.80;97591.69;4946426;28;20294;-76
2022/10/05 03:21:08;;;;;;;14.95;10.50;;;;;;;15.23;67.97;97592.75;4946119;28;20688;-77
2022/10/05 03:23:52;;;;;;;13.10;9.50;;;;;;;15.41;67.33;97594.81;4930392;28;20273;-76
2022/10/05 03:26:43;;;;;;;10.88;8.50;;;;;;;15.29;67.50;97591.69;4927021;28;20613;-76
2022/10/05 03:29:28;;;;;;;11.73;8.70;;;;;;;15.13;67.86;97588.28;4944218;28;20186;-76
2022/10/05 03:32:06;;;;;;;13.60;9.05;;;;;;;15.13;67.51;97589.09;4944037;28;20598;-77
2022/10/05 03:34:48;;;;;;;11.70;8.60;;;;;;;15.06;67.38;97595.63;4947444;28;20169;-77
2022/10/05 03:37:22;;;;;;;11.90;8.35;;;;;;;15.03;67.36;97590.91;4944508;28;20165;-76
2022/10/05 03:39:58;;;;;;;12.45;8.77;;;;;;;14.94;67.56;97595.88;4911583;28;20353;-77
2022/10/05 03:42:33;;;;;;;13.00;7.95;;;;;;;15.00;67.50;97596.69;4951797;28;20786;-76
2022/10/05 03:45:01;;;;;;;11.10;7.32;;;;;;;15.05;66.84;97601.94;4947760;28;20167;-76
2022/10/05 03:48:09;;;;;;;11.00;7.82;;;;;;;14.73;67.91;97610.81;4916389;28;20243;-77
2022/10/05 03:51:11;;;;;;;10.98;8.18;;;;;;;14.84;67.56;97619.47;4861354;28;20259;-76
2022/10/05 03:53:46;;;;;;;14.43;7.47;;;;;;;14.83;67.80;97610.06;4902911;28;20336;-76
2022/10/05 03:56:31;;;;;;;;;;;;;;;14.70;68.52;97611.34;4890949;28;20111;-77
2022/10/05 03:59:00;;;;;;;12.75;7.45;;;;;;;14.91;67.93;97610.31;4876275;28;20338;-77
2022/10/05 04:01:38;;;;;;;10.20;7.78;;;;;;;14.88;67.81;97612.69;4913509;28;20537;-77
2022/10/05 04:04:06;;;;;;;10.20;7.78;;;;;;;14.97;67.65;97611.88;4904600;28;20724;-77
2022/10/05 04:06:41;;;;;;;10.68;7.97;;;;;;;14.88;67.53;97610.06;4865937;28;20168;-76
2022/10/05 04:09:30;;;;;;;10.95;7.85;;;;;;;14.89;67.76;97601.13;4891052;28;20209;-76
2022/10/05 04:12:08;;;;;;;11.43;7.78;;;;;;;14.73;67.83;97603.75;4903229;28;20723;-77
2022/10/05 04:14:41;;;;;;;10.70;7.15;;;;;;;14.81;67.31;97597.22;4892195;28;20224;-76
2022/10/05 04:17:16;;;;;;;11.27;7.30;;;;;;;14.77;67.27;97599.56;4875843;28;20211;-76
2022/10/05 04:19:55;;;;;;;9.30;7.25;;;;;;;14.67;67.38;97594.31;4890540;28;20191;-76
2022/10/05 04:22:24;;;;;;;9.85;7.10;;;;;;;14.85;66.78;97607.97;4890136;28;20198;-77
2022/10/05 04:25:05;;;;;;;8.25;6.50;;;;;;;14.78;66.92;97606.38;4932240;28;20723;-77
2022/10/05 04:27:38;;;;;;;10.55;6.78;;;;;;;14.66;67.28;97613.69;4949017;28;20335;-76
2022/10/05 04:30:11;;;;;;;8.25;6.90;;;;;;;14.73;66.52;97608.97;4944229;28;20207;-77
2022/10/05 04:32:53;;;;;;;7.90;6.32;;;;;;;14.50;66.77;97610.22;4948966;28;20392;-77
2022/10/05 04:35:44;;;;;;;9.95;6.82;;;;;;;14.42;67.65;97611.50;4947909;28;20183;-77
2022/10/05 04:38:43;;;;;;;8.13;6.38;;;;;;;14.46;67.76;97606.53;4948940;28;20186;-76
2022/10/05 04:41:36;;;;;;;8.05;5.85;;;;;;;14.36;67.29;97611.75;4948370;28;20214;-77
2022/10/05 04:44:35;;;;;;;10.73;6.20;;;;;;;14.46;67.22;97616.25;4943324;28;20705;-76
2022/10/05 04:47:17;;;;;;;8.70;6.22;;;;;;;14.43;67.68;97604.47;4946258;28;20312;-76
2022/10/05 04:49:46;;;;;;;9.60;7.10;;;;;;;14.65;68.02;97620.00;4948133;28;20590;-77
2022/10/05 04:52:27;;;;;;;9.30;7.13;;;;;;;14.62;67.70;97620.50;4930347;28;20644;-77
2022/10/05 04:55:11;;;;;;;9.15;6.68;;;;;;;14.59;67.83;97611.31;4944172;28;20269;-76
2022/10/05 04:57:45;;;;;;;11.90;6.85;;;;;;;14.62;67.97;97615.28;4949050;28;20228;-76
2022/10/05 05:00:27;;;;;;;9.95;6.60;;;;;;;14.69;67.81;97621.03;4948078;28;20107;-76
2022/10/05 05:03:14;;;;;;;9.93;6.85;;;;;;;14.79;67.55;97621.06;4945925;28;20286;-76
2022/10/05 05:05:52;;;;;;;7.82;6.35;;;;;;;14.76;67.81;97621.56;4949383;28;20194;-77
2022/10/05 05:08:56;;;;;;;7.68;6.22;;;;;;;14.74;67.89;97618.44;4945729;28;20207;-77
2022/10/05 05:11:38;;;;;;;8.05;6.50;;;;;;;14.97;67.71;97622.38;4930810;28;20195;-76
2022/10/05 05:14:36;;;;;;;9.13;6.88;;;;;;;14.95;67.65;97627.09;4931488;28;20168;-77
2022/10/05 05:17:20;;;;;;;8.30;6.82;;;;;;;14.91;67.88;97617.41;4894629;28;20205;-76
2022/10/05 05:20:00;;;;;;;8.38;6.47;;;;;;;14.99;67.46;97619.50;4945924;28;20735;-77
2022/10/05 05:22:43;;;;;;;7.43;5.82;;;;;;;14.85;67.53;97623.69;4946991;28;20329;-77
2022/10/05 05:25:33;;;;;;;9.38;6.60;;;;;;;14.90;67.92;97621.06;4913358;28;20218;-77
2022/10/05 05:28:09;;;;;;;7.55;6.20;;;;;;;15.03;67.59;97623.19;4946470;28;20207;-77
2022/10/05 05:30:43;;;;;;;8.80;6.13;;;;;;;15.01;67.73;97630.53;4969925;28;20200;-77
2022/10/05 05:33:19;;;;;;;8.68;5.95;;;;;;;15.01;67.93;97633.16;4926798;28;20196;-77
2022/10/05 05:36:09;;;;;;;9.75;7.25;;;;;;;15.01;68.17;97632.34;4943756;28;20243;-77
2022/10/05 05:39:04;;;;;;;10.73;7.32;;;;;;;15.05;68.22;97638.66;4946422;28;20212;-77
2022/10/05 05:41:36;;;;;;;9.40;6.95;;;;;;;15.11;67.72;97633.16;4930143;28;20212;-77
2022/10/05 05:44:17;;;;;;;10.60;7.35;;;;;;;15.12;67.86;97639.19;4925336;28;20178;-77
2022/10/05 05:46:54;;;;;;;12.52;7.28;;;;;;;15.07;68.17;97645.19;4954126;28;20270;-77
2022/10/05 05:49:42;;;;;;;12.40;8.10;;;;;;;15.02;68.38;97650.44;4947237;28;20181;-77
2022/10/05 05:52:10;;;;;;;10.85;6.93;;;;;;;15.26;67.86;97649.94;4945348;28;20319;-76
2022/10/05 05:54:41;;;;;;;11.88;8.23;;;;;;;15.26;67.67;97647.31;4946290;28;20198;-77
2022/10/05 05:57:18;;;;;;;9.20;6.95;;;;;;;15.25;67.66;97648.34;4930531;28;20638;-77
2022/10/05 06:00:12;;;;;;;9.32;7.47;;;;;;;15.29;67.84;97639.69;4946050;28;20216;-77
2022/10/05 06:03:01;;;;;;;10.98;7.07;;;;;;;15.30;67.67;97649.16;4911288;28;20227;-77
2022/10/05 06:05:30;;;;;;;10.63;6.68;;;;;;;15.42;67.74;97643.66;4946222;28;20165;-76
2022/10/05 06:07:58;;;;;;;9.20;7.57;;;;;;;15.49;67.52;97648.59;4930312;28;20264;-77
2022/10/05 06:10:41;;;;;;;9.82;7.22;;;;;;;15.44;67.44;97652.03;4929943;28;20243;-77
2022/10/05 06:13:15;;;;;;;10.02;6.95;;;;;;;15.40;67.83;97648.34;4931263;28;20267;-77
2022/10/05 06:15:46;;;;;;;12.27;7.72;;;;;;;15.48;67.27;97647.81;4930416;28;20259;-77
2022/10/05 06:18:14;;;;;;;10.60;6.95;;;;;;;15.52;67.30;97648.88;4912808;28;20286;-77
2022/10/05 06:21:18;;;;;;;9.20;8.20;;;;;;;15.33;67.94;97660.94;4944607;28;20264;-77
2022/10/05 06:24:10;;;;;;;9.18;6.80;;;;;;;15.44;67.88;97652.03;4914322;28;20223;-77
2022/10/05 06:27:18;;;;;;;10.05;7.07;;;;;;;15.35;68.30;97658.84;4942157;28;20274;-76
2022/10/05 06:29:57;;;;;;;11.85;7.95;;;;;;;15.54;67.49;97657.28;4927386;28;20121;-77
2022/10/05 06:32:32;;;;;;;11.35;8.48;;;;;;;15.44;68.16;97656.47;4924948;28;20622;-77
2022/10/05 06:35:05;;;;;;;;;;;;;;;15.36;68.68;97663.81;4931268;28;20196;-77
2022/10/05 06:38:23;;;;;;;11.02;7.50;;;;;;;15.48;67.85;97658.31;4945166;28;20079;-77
2022/10/05 06:40:59;;;;;;;11.15;7.88;;;;;;;15.51;67.82;97657.78;4902039;28;20226;-77
2022/10/05 06:43:30;;;;;;;11.40;8.55;;;;;;;15.60;68.01;97658.03;4928451;28;20686;-77
2022/10/05 06:46:02;;;;;;;12.55;9.05;;;;;;;15.57;68.27;97661.19;4949679;28;20314;-77
2022/10/05 06:48:37;;;;;;;12.40;9.18;;;;;;;15.51;68.41;97654.38;4953789;28;20184;-77
2022/10/05 06:51:23;;;;;;;11.93;9.15;;;;;;;15.65;67.98;97654.63;4940700;28;20666;-77
2022/10/05 06:54:26;;;;;;;10.77;8.15;;;;;;;15.70;67.99;97657.25;4944517;28;20298;-77
2022/10/05 06:56:56;;;;;;;11.07;8.68;;;;;;;15.76;67.69;97658.03;4946628;28;20256;-78
2022/10/05 06:59:34;;;;;;;11.70;9.18;;;;;;;15.71;67.98;97656.19;4952014;28;20345;-77
2022/10/05 07:02:07;;;;;;;11.27;8.48;;;;;;;15.79;67.66;97658.31;4946443;28;20187;-77
2022/10/05 07:04:46;;;;;;;17.90;9.73;;;;;;;15.72;68.65;97660.38;4929929;28;20689;-78
2022/10/05 07:07:36;;;;;;;12.98;9.85;;;;;;;15.84;67.81;97666.16;4944781;28;20595;-77
2022/10/05 07:10:13;;;;;;;13.43;8.93;;;;;;;15.93;67.48;97666.41;4948797;28;20210;-77
2022/10/05 07:12:44;;;;;;;12.35;8.80;;;;;;;16.00;66.94;97668.75;4940775;28;20129;-76
2022/10/05 07:15:28;;;;;;;12.50;9.30;;;;;;;15.94;67.44;97664.56;4944816;28;20288;-76
2022/10/05 07:18:02;;;;;;;10.48;8.30;;;;;;;15.94;67.68;97672.44;4948046;28;20250;-76
2022/10/05 07:20:31;;;;;;;12.27;9.07;;;;;;;16.03;67.62;97668.22;4947093;28;20187;-77
2022/10/05 07:23:06;;;;;;;11.13;8.70;;;;;;;16.03;67.35;97673.47;4929781;28;20111;-76
2022/10/05 07:25:39;;;;;;;14.55;8.52;;;;;;;16.06;67.34;97672.97;4947378;28;20260;-77
2022/10/05 07:28:08;;;;;;;11.38;8.43;;;;;;;16.15;67.35;97667.94;4929716;28;20180;-76
2022/10/05 07:30:55;;;;;;;15.02;9.32;;;;;;;16.04;67.63;97673.22;4946823;28;20242;-76
2022/10/05 07:33:56;;;;;;;13.80;10.05;;;;;;;15.97;67.97;97679.78;4946982;28;20255;-76
2022/10/05 07:39:47;;;;;;;13.10;9.48;;;;;;;16.03;68.44;97676.88;4946286;28;20336;-76
2022/10/05 07:42:19;;;;;;;10.57;7.80;;;;;;;16.24;67.60;97680.22;4950003;28;20221;-76
2022/10/05 07:44:51;;;;;;;11.52;8.80;;;;;;;16.24;67.20;97685.47;4946317;28;20716;-76
2022/10/05 07:47:37;;;;;;;10.93;7.93;;;;;;;16.14;67.64;97682.88;4946787;28;20203;-77
2022/10/05 07:50:29;;;;;;;13.18;8.13;;;;;;;16.04;68.66;97678.47;4947171;28;20361;-76
2022/10/05 07:53:18;;;;;;;11.82;8.45;;;;;;;15.97;68.54;97685.03;4915405;28;20626;-77
2022/10/05 07:55:48;;;;;;;15.35;7.68;;;;;;;16.14;68.36;97679.47;4915040;28;20290;-76
2022/10/05 07:58:39;;;;;;;10.70;7.70;;;;;;;16.21;67.70;97683.41;4915154;28;20180;-76
2022/10/05 08:01:23;;;;;;;12.48;7.60;;;;;;;15.99;68.48;97681.13;4947663;28;20587;-77
2022/10/05 08:04:37;;;;;;;12.70;8.02;;;;;;;16.15;68.35;97681.84;4914908;28;20207;-76
2022/10/05 08:07:05;;;;;;;10.43;7.90;;;;;;;16.27;67.72;97684.97;4898887;28;20534;-76
2022/10/05 08:09:41;;;;;;;9.93;7.07;;;;;;;16.36;67.65;97687.03;4947562;28;20189;-76
2022/10/05 08:12:24;;;;;;;9.43;7.25;;;;;;;16.47;68.06;97680.69;4915906;28;20253;-76
2022/10/05 08:14:55;;;;;;;9.30;7.32;;;;;;;16.64;67.24;97678.50;4947480;28;20254;-76
2022/10/05 08:17:51;;;;;;;12.98;7.43;;;;;;;16.49;68.06;97675.94;4947363;28;20195;-77
2022/10/05 08:20:36;;;;;;;;;;;;;;;16.48;68.18;97674.34;4924921;28;20467;-77
2022/10/05 08:23:10;;;;;;;8.40;6.63;;;;;;;16.64;67.77;97673.25;4947976;28;20077;-76
2022/10/05 08:26:04;;;;;;;9.50;6.70;;;;;;;16.65;67.80;97674.78;4940155;28;20649;-76
2022/10/05 08:28:58;;;;;;;12.68;7.13;;;;;;;16.66;67.85;97665.09;4947171;28;20194;-76
2022/10/05 08:31:25;;;;;;;10.02;7.10;;;;;;;16.97;67.37;97672.81;4946195;28;20673;-76
2022/10/05 08:33:58;;;;;;;13.70;7.45;;;;;;;16.96;67.39;97674.66;4946088;28;20741;-77
2022/10/05 08:36:57;;;;;;;10.13;6.38;;;;;;;16.81;67.72;97672.06;4930532;28;20119;-76
2022/10/05 08:39:26;;;;;;;8.45;6.88;;;;;;;16.91;67.42;97672.03;4967248;28;20215;-77
2022/10/05 08:42:13;;;;;;;10.13;7.38;;;;;;;16.79;66.98;97674.19;4911341;28;20216;-78
2022/10/05 08:44:52;;;;;;;8.82;6.28;;;;;;;17.12;66.14;97670.09;4942001;28;20161;-76
2022/10/05 08:47:40;;;;;;;8.15;6.50;;;;;;;17.02;66.14;97681.47;4946645;28;20204;-77
2022/10/05 08:50:28;;;;;;;8.77;6.35;;;;;;;17.10;67.46;97674.84;4947863;28;20181;-76
2022/10/05 08:53:04;;;;;;;8.48;6.50;;;;;;;17.14;66.68;97670.59;4947065;28;20198;-76
2022/10/05 08:56:03;;;;;;;7.97;6.05;;;;;;;17.28;66.05;97668.13;4945875;28;20204;-77
2022/10/05 08:58:54;;;;;;;9.85;7.00;;;;;;;17.26;65.85;97670.25;4947139;28;20496;-77
2022/10/05 09:02:01;;;;;;;8.30;5.93;;;;;;;17.20;66.58;97674.78;4945986;28;20258;-77
2022/10/05 09:04:51;;;;;;;7.72;5.85;;;;;;;17.27;65.88;97677.06;4940806;28;20149;-77
2022/10/05 09:07:35;;;;;;;8.10;5.68;;;;;;;17.41;65.60;97680.66;4946985;28;20219;-77
2022/10/05 09:10:44;;;;;;;8.82;5.88;;;;;;;17.21;66.24;97670.28;4979743;28;20274;-76
2022/10/05 09:13:12;;;;;;;8.35;6.65;;;;;;;17.45;65.57;97682.75;4947398;28;20194;-77
2022/10/05 09:16:19;;;;;;;8.27;6.38;;;;;;;17.13;67.11;97665.59;4979673;28;20241;-77
2022/10/05 09:18:59;;;;;;;8.57;6.18;;;;;;;17.38;65.89;97680.41;4945667;28;20169;-78
2022/10/05 09:21:38;;;;;;;8.82;6.15;;;;;;;17.34;65.92;97684.66;4930315;28;20279;-77
2022/10/05 09:24:18;;;;;;;8.50;6.53;;;;;;;17.39;65.56;97677.50;4946749;28;20273;-77
2022/10/05 09:27:15;;;;;;;9.15;6.68;;;;;;;17.40;65.71;97679.06;4945727;28;20673;-77
2022/10/05 09:30:09;;;;;;;8.20;6.18;;;;;;;17.39;65.56;97676.72;4942739;28;20244;-77
2022/10/05 09:32:56;;;;;;;7.70;5.97;;;;;;;17.41;66.64;97674.59;4929894;28;20203;-77
2022/10/05 09:35:37;;;;;;;9.05;6.00;;;;;;;17.52;65.92;97678.72;4939700;28;20745;-77
2022/10/05 09:38:11;;;;;;;8.65;6.00;;;;;;;17.54;66.20;97683.69;4948543;28;20644;-76
2022/10/05 09:41:04;;;;;;;9.55;6.45;;;;;;;17.26;66.85;97680.00;4945311;28;20761;-76
2022/10/05 09:43:36;;;;;;;8.30;5.55;;;;;;;17.53;65.61;97685.56;4945713;28;20578;-77
2022/10/05 09:46:24;;;;;;;9.70;6.32;;;;;;;17.14;66.71;97669.81;4945758;28;20254;-77
2022/10/05 09:49:05;;;;;;;8.57;5.65;;;;;;;17.34;66.86;97679.38;4945375;28;20294;-77
2022/10/05 09:51:55;;;;;;;8.93;6.35;;;;;;;17.66;65.73;97673.56;4930079;28;20211;-77
2022/10/05 09:54:45;;;;;;;7.90;5.88;;;;;;;17.79;66.05;97674.78;4947091;28;20248;-76
2022/10/05 09:57:29;;;;;;;8.95;6.03;;;;;;;18.00;66.02;97664.06;4948076;28;20294;-77
2022/10/05 10:00:33;;;;;;;9.43;6.05;;;;;;;18.23;65.18;97673.03;4931037;28;20280;-76
2022/10/05 10:03:07;;;;;;;7.13;5.50;;;;;;;18.57;64.24;97667.59;4945483;28;20246;-77
2022/10/05 10:05:32;;;;;;;6.97;5.55;;;;;;;18.68;64.43;97668.25;4945714;28;20389;-76
2022/10/05 10:08:04;;;;;;;6.80;5.57;;;;;;;18.48;64.69;97667.44;4946067;28;20445;-76
2022/10/05 10:10:57;;;;;;;6.78;5.10;;;;;;;18.55;65.00;97664.44;4945964;28;20298;-77
2022/10/05 10:13:42;;;;;;;5.55;4.90;;;;;;;18.79;63.97;97668.91;4928690;28;20184;-77
2022/10/05 10:16:31;;;;;;;7.32;5.63;;;;;;;18.88;63.93;97661.91;4926629;28;20272;-76
2022/10/05 10:19:09;;;;;;;7.57;4.80;;;;;;;19.26;63.63;97657.41;4943797;28;20627;-78
2022/10/05 10:22:15;;;;;;;7.28;5.13;;;;;;;18.98;63.73;97655.72;4942406;28;20705;-77
2022/10/05 10:25:30;;;;;;;5.95;5.13;;;;;;;19.20;63.15;97652.47;4932942;28;20760;-77
2022/10/05 10:28:31;;;;;;;6.68;4.70;;;;;;;19.47;63.60;97651.78;4911764;28;20312;-79
2022/10/05 10:31:29;;;;;;;6.03;4.97;;;;;;;19.74;62.11;97644.94;4937831;28;20597;-78
2022/10/05 10:34:23;;;;;;;5.13;4.43;;;;;;;20.08;60.18;97643.81;4914264;28;20672;-78
2022/10/05 10:37:05;;;;;;;7.10;5.30;;;;;;;20.14;61.34;97634.72;4930054;28;20215;-77
2022/10/05 10:39:55;;;;;;;5.22;4.20;;;;;;;20.62;60.25;97636.13;4945849;28;20199;-78
2022/10/05 10:42:35;;;;;;;5.75;4.38;;;;;;;20.84;60.26;97633.53;4930725;28;20305;-77
2022/10/05 10:45:16;;;;;;;4.57;4.18;;;;;;;20.82;59.93;97637.53;4894165;28;20235;-78
2022/10/05 10:47:55;;;;;;;5.55;4.22;;;;;;;21.04;59.42;97631.47;4940899;28;20284;-77
2022/10/05 10:50:23;;;;;;;6.18;4.35;;;;;;;21.53;56.77;97632.41;4947105;28;20289;-76
2022/10/05 10:53:15;;;;;;;6.07;4.30;;;;;;;21.48;57.81;97624.59;4945309;28;20580;-77
2022/10/05 10:56:19;;;;;;;4.65;3.80;;;;;;;21.66;56.65;97630.75;4912971;28;20641;-76
2022/10/05 10:59:12;;;;;;;4.35;3.70;;;;;;;22.16;55.24;97627.81;4915855;28;20262;-77
2022/10/05 11:01:48;;;;;;;4.10;3.72;;;;;;;22.42;55.27;97619.16;4952005;28;20578;-77
2022/10/05 11:05:11;;;;;;;6.63;3.67;;;;;;;22.61;54.18;97621.50;4929534;28;20266;-77
2022/10/05 11:08:14;;;;;;;3.78;3.38;;;;;;;22.82;54.43;97618.97;4917228;28;20257;-77
2022/10/05 11:11:13;;;;;;;3.55;3.25;;;;;;;23.15;53.58;97619.31;4903662;28;20290;-78
2022/10/05 11:14:02;;;;;;;3.33;3.00;;;;;;;23.20;53.70;97626.31;4943761;28;20393;-78
2022/10/05 11:16:53;;;;;;;3.58;2.90;;;;;;;23.68;52.19;97614.63;4944361;28;20192;-78
2022/10/05 11:19:28;;;;;;;4.05;3.65;;;;;;;23.79;52.16;97611.59;4941705;28;20702;-78
2022/10/05 11:22:16;;;;;;;5.00;3.40;;;;;;;24.35;50.86;97608.78;4930426;28;20199;-78
2022/10/05 11:24:53;;;;;;;4.65;3.30;;;;;;;24.92;49.19;97604.78;4929749;28;20249;-77
2022/10/05 11:27:32;;;;;;;4.60;3.28;;;;;;;25.16;49.57;97599.50;4914357;28;20204;-77
2022/10/05 11:30:24;;;;;;;2.55;2.30;;;;;;;25.74;48.07;97596.06;4944438;28;20264;-77
2022/10/05 11:33:10;;;;;;;3.40;2.42;;;;;;;26.27;46.47;97591.59;4946910;28;20164;-77
2022/10/05 11:35:58;;;;;;;2.95;2.65;;;;;;;26.67;46.28;97587.38;4928857;28;20645;-77
2022/10/05 11:38:41;;;;;;;2.75;2.55;;;;;;;27.09;44.96;97593.06;4928044;28;20543;-77
2022/10/05 11:41:31;;;;;;;3.25;2.53;;;;;;;27.63;43.15;97582.94;4944785;28;20617;-78
2022/10/05 11:44:12;;;;;;;2.85;2.65;;;;;;;27.88;42.15;97588.06;4943765;28;20219;-78
2022/10/05 11:46:45;;;;;;;3.25;2.58;;;;;;;28.28;40.57;97589.75;4943817;28;20215;-78
2022/10/05 11:49:38;;;;;;;3.38;3.10;;;;;;;28.08;42.01;97586.25;4945610;28;20630;-78
2022/10/05 11:52:06;;;;;;;3.85;3.08;;;;;;;28.22;41.62;97575.84;4945704;28;20400;-78
2022/10/05 11:54:52;;;;;;;2.60;2.40;;;;;;;28.82;40.25;97567.47;4945677;28;20177;-78
2022/10/05 11:57:38;;;;;;;2.92;2.67;;;;;;;28.60;40.95;97568.19;4945689;28;20260;-78
2022/10/05 12:00:14;;;;;;;3.55;2.55;;;;;;;28.91;40.47;97573.38;4922239;28;20195;-78
2022/10/05 12:02:55;;;;;;;2.70;2.50;;;;;;;28.72;41.09;97562.69;4914160;28;20257;-78
2022/10/05 12:05:47;;;;;;;2.95;2.70;;;;;;;28.69;40.42;97560.72;4947844;28;20253;-78
2022/10/05 12:08:53;;;;;;;2.53;2.33;;;;;;;28.29;41.29;97551.91;4916890;28;20613;-78
2022/10/05 12:11:27;;;;;;;3.17;2.92;;;;;;;28.75;40.90;97551.25;4936880;28;20642;-79
2022/10/05 12:14:07;;;;;;;3.42;2.67;;;;;;;29.12;39.49;97546.16;4932030;28;20646;-78
2022/10/05 12:16:57;;;;;;;8.57;2.97;;;;;;;29.31;38.97;97544.59;4947804;28;20209;-78
2022/10/05 12:19:35;;;;;;;3.05;2.60;;;;;;;28.55;40.51;97543.25;4944937;28;20188;-78
2022/10/05 12:22:08;;;;;;;3.00;2.70;;;;;;;28.19;40.97;97545.19;4913939;28;20400;-79
2022/10/05 12:24:34;;;;;;;4.28;2.95;;;;;;;27.40;44.15;97548.78;4948013;28;20203;-78
2022/10/05 12:27:11;;;;;;;3.72;2.63;;;;;;;26.08;45.58;97543.34;4947764;28;20200;-78
2022/10/05 12:29:49;;;;;;;2.42;2.22;;;;;;;26.03;46.04;97547.03;4948309;28;20203;-77
2022/10/05 12:32:19;;;;;;;2.75;2.42;;;;;;;25.50;48.02;97541.59;4948653;28;20192;-78
2022/10/05 12:34:53;;;;;;;3.55;2.70;;;;;;;25.30;48.00;97545.91;4947354;28;20275;-78
2022/10/05 12:37:37;;;;;;;2.50;2.33;;;;;;;24.81;49.46;97541.25;4932955;28;20720;-77
2022/10/05 12:40:31;;;;;;;4.80;2.33;;;;;;;24.37;50.89;97532.84;4947009;28;20172;-77
2022/10/05 12:43:08;;;;;;;2.08;1.90;;;;;;;24.35;50.96;97529.75;4916340;28;20173;-77